createdAt,value
2017-08-20T00:02:19.339Z,18.33
2017-08-20T00:04:50.600Z,23.83
2017-08-20T00:07:21.236Z,22.20
2017-08-20T00:09:51.638Z,17.60
2017-08-20T00:12:22.984Z,16.67
2017-08-20T00:14:53.472Z,14.70
2017-08-20T00:17:24.077Z,18.73
2017-08-20T00:19:54.442Z,19.00
2017-08-20T00:22:24.933Z,19.70
2017-08-20T00:24:55.383Z,25.00
2017-08-20T00:27:25.839Z,30.80
2017-08-20T00:29:56.324Z,25.03
2017-08-20T00:32:26.970Z,23.43
2017-08-20T00:34:57.366Z,18.93
2017-08-20T00:37:28.468Z,21.33
2017-08-20T00:39:59.437Z,22.50
2017-08-20T00:42:30.675Z,18.93
2017-08-20T00:45:01.040Z,20.87
2017-08-20T00:47:31.533Z,18.10
2017-08-20T00:50:02.078Z,22.60
2017-08-20T00:52:33.320Z,22.27
2017-08-20T00:55:03.768Z,17.33
2017-08-20T00:57:34.256Z,23.73
2017-08-20T01:00:04.811Z,21.23
2017-08-20T01:02:36.085Z,17.33
2017-08-20T01:05:06.425Z,14.73
2017-08-20T01:07:37.048Z,21.27
2017-08-20T01:10:07.617Z,24.47
2017-08-20T01:12:38.410Z,25.03
2017-08-20T01:15:08.795Z,17.13
2017-08-20T01:17:39.236Z,17.23
2017-08-20T01:20:09.534Z,15.00
2017-08-20T01:22:39.965Z,16.40
2017-08-20T01:25:10.529Z,22.43
2017-08-20T01:27:41.902Z,16.20
2017-08-20T01:30:12.446Z,19.90
2017-08-20T01:32:42.722Z,22.00
2017-08-20T01:35:13.205Z,26.53
2017-08-20T01:37:45.967Z,23.93
2017-08-20T01:40:16.462Z,17.40
2017-08-20T01:42:46.958Z,19.27
2017-08-20T01:45:17.494Z,23.30
2017-08-20T01:47:47.801Z,18.10
2017-08-20T01:50:18.382Z,13.07
2017-08-20T01:52:48.761Z,15.57
2017-08-20T01:55:19.388Z,11.30
2017-08-20T01:57:49.743Z,9.23
2017-08-20T02:00:20.281Z,7.60
2017-08-20T02:02:50.571Z,9.17
2017-08-20T02:05:21.758Z,7.40
2017-08-20T02:07:52.113Z,10.20
2017-08-20T02:10:22.726Z,8.37
2017-08-20T02:12:53.139Z,7.63
2017-08-20T02:15:23.747Z,8.30
2017-08-20T02:17:54.164Z,7.90
2017-08-20T02:20:24.559Z,7.57
2017-08-20T02:22:54.940Z,8.13
2017-08-20T02:25:25.416Z,8.30
2017-08-20T02:27:55.923Z,10.90
2017-08-20T02:30:26.517Z,8.17
2017-08-20T02:32:57.053Z,9.33
2017-08-20T02:35:27.440Z,8.20
2017-08-20T02:37:57.784Z,10.40
2017-08-20T02:40:29.396Z,8.20
2017-08-20T02:42:59.955Z,10.63
2017-08-20T02:45:31.322Z,11.83
2017-08-20T02:48:02.364Z,8.97
2017-08-20T02:50:33.676Z,8.93
2017-08-20T02:53:04.259Z,15.37
2017-08-20T02:55:34.796Z,14.50
2017-08-20T02:58:05.424Z,17.30
2017-08-20T03:00:36.056Z,16.77
2017-08-20T03:03:06.726Z,23.30
2017-08-20T03:05:37.220Z,16.43
2017-08-20T03:08:07.806Z,17.77
2017-08-20T03:10:38.409Z,14.10
2017-08-20T03:13:08.908Z,18.67
2017-08-20T03:15:39.304Z,17.53
2017-08-20T03:18:09.703Z,16.67
2017-08-20T03:20:39.981Z,19.80
2017-08-20T03:23:11.056Z,18.53
2017-08-20T03:25:41.457Z,23.73
2017-08-20T03:28:11.812Z,21.60
2017-08-20T03:30:42.302Z,19.40
2017-08-20T03:33:13.491Z,17.77
2017-08-20T03:35:43.896Z,18.63
2017-08-20T03:38:14.270Z,15.70
2017-08-20T03:40:44.892Z,23.00
2017-08-20T03:43:15.342Z,17.80
2017-08-20T03:45:46.649Z,20.40
2017-08-20T03:48:17.207Z,14.47
2017-08-20T03:50:47.481Z,16.83
2017-08-20T03:53:18.165Z,20.03
2017-08-20T03:55:48.775Z,27.17
2017-08-20T03:58:19.507Z,20.17
2017-08-20T04:00:50.024Z,22.77
2017-08-20T04:03:20.432Z,28.67
2017-08-20T04:05:51.735Z,21.17
2017-08-20T04:08:22.268Z,23.57
2017-08-20T04:10:52.691Z,23.83
2017-08-20T04:13:23.420Z,29.37
2017-08-20T04:15:53.936Z,24.60
2017-08-20T04:18:24.293Z,22.87
2017-08-20T04:20:54.775Z,20.30
2017-08-20T04:23:25.346Z,22.10
2017-08-20T04:25:55.765Z,28.53
2017-08-20T04:28:26.227Z,27.87
2017-08-20T04:30:56.565Z,25.20
2017-08-20T04:33:27.877Z,22.47
2017-08-20T04:35:58.591Z,25.60
2017-08-20T04:38:29.397Z,25.67
2017-08-20T04:41:00.991Z,25.73
2017-08-20T04:43:31.448Z,29.33
2017-08-20T04:46:01.879Z,25.73
2017-08-20T04:48:32.414Z,26.83
2017-08-20T04:51:02.706Z,23.47
2017-08-20T04:53:33.214Z,24.43
2017-08-20T04:56:03.739Z,20.17
2017-08-20T04:58:34.993Z,23.37
2017-08-20T05:01:06.312Z,25.80
2017-08-20T05:03:36.796Z,23.37
2017-08-20T05:06:07.550Z,20.50
2017-08-20T05:08:37.993Z,22.60
2017-08-20T05:11:08.378Z,20.83
2017-08-20T05:13:38.847Z,25.93
2017-08-20T05:16:09.493Z,22.97
2017-08-20T05:18:39.996Z,24.00
2017-08-20T05:21:10.301Z,23.30
2017-08-20T05:23:40.567Z,26.07
2017-08-20T05:26:11.162Z,20.40
2017-08-20T05:28:49.819Z,18.23
2017-08-20T05:31:21.115Z,18.77
2017-08-20T05:33:51.443Z,17.93
2017-08-20T05:36:21.742Z,17.47
2017-08-20T05:38:53.031Z,14.17
2017-08-20T05:41:23.981Z,17.90
2017-08-20T05:43:54.464Z,16.47
2017-08-20T05:46:25.852Z,15.70
2017-08-20T05:48:56.300Z,15.50
2017-08-20T05:51:27.010Z,14.70
2017-08-20T05:53:57.811Z,15.33
2017-08-20T05:56:28.188Z,15.73
2017-08-20T05:58:59.589Z,14.30
2017-08-20T06:01:31.024Z,14.07
2017-08-20T06:04:01.512Z,14.50
2017-08-20T06:06:32.007Z,15.20
2017-08-20T06:09:03.203Z,14.97
2017-08-20T06:11:33.656Z,24.80
2017-08-20T06:14:04.108Z,15.03
2017-08-20T06:16:35.432Z,18.10
2017-08-20T06:19:06.035Z,14.37
2017-08-20T06:21:36.400Z,16.27
2017-08-20T06:24:06.876Z,14.37
2017-08-20T06:26:37.277Z,14.33
2017-08-20T06:29:07.703Z,14.07
2017-08-20T06:31:38.238Z,14.17
2017-08-20T06:34:08.866Z,20.97
2017-08-20T06:36:39.562Z,15.30
2017-08-20T06:39:10.092Z,16.57
2017-08-20T06:41:40.821Z,18.23
2017-08-20T06:44:11.366Z,13.90
2017-08-20T06:46:41.970Z,13.70
2017-08-20T06:49:12.567Z,19.33
2017-08-20T06:51:43.848Z,18.13
2017-08-20T06:54:14.223Z,13.90
2017-08-20T06:56:44.764Z,14.47
2017-08-20T06:59:15.436Z,18.23
2017-08-20T07:01:46.073Z,17.30
2017-08-20T07:04:16.642Z,21.23
2017-08-20T07:06:47.072Z,21.50
2017-08-20T07:09:17.574Z,23.73
2017-08-20T07:11:47.974Z,17.13
2017-08-20T07:14:19.019Z,19.63
2017-08-20T07:16:50.121Z,25.37
2017-08-20T07:19:20.529Z,18.17
2017-08-20T07:21:51.048Z,16.30
2017-08-20T07:24:21.479Z,17.40
2017-08-20T07:26:52.004Z,17.77
2017-08-20T07:29:22.510Z,21.77
2017-08-20T07:31:53.144Z,19.10
2017-08-20T07:34:23.757Z,19.83
2017-08-20T07:36:54.294Z,20.63
2017-08-20T07:39:25.784Z,19.03
2017-08-20T07:41:56.483Z,24.40
2017-08-20T07:44:27.592Z,29.50
2017-08-20T07:46:58.422Z,19.97
2017-08-20T07:49:28.890Z,21.03
2017-08-20T07:51:59.954Z,18.83
2017-08-20T07:54:30.489Z,26.60
2017-08-20T07:57:01.075Z,20.80
2017-08-20T07:59:31.625Z,26.00
2017-08-20T08:02:02.904Z,20.30
2017-08-20T08:04:33.434Z,28.83
2017-08-20T08:07:03.968Z,19.60
2017-08-20T08:09:34.482Z,18.90
2017-08-20T08:12:05.748Z,26.43
2017-08-20T08:14:36.157Z,20.50
2017-08-20T08:17:07.615Z,19.87
2017-08-20T08:19:38.727Z,23.20
2017-08-20T08:22:09.291Z,22.40
2017-08-20T08:24:40.493Z,20.37
2017-08-20T08:27:10.788Z,22.90
2017-08-20T08:29:41.140Z,19.40
2017-08-20T08:32:11.457Z,17.37
2017-08-20T08:34:41.966Z,20.53
2017-08-20T08:37:12.475Z,17.67
2017-08-20T08:39:42.939Z,21.60
2017-08-20T08:42:13.733Z,18.40
2017-08-20T08:44:44.895Z,21.77
2017-08-20T08:47:15.347Z,18.90
2017-08-20T08:49:45.708Z,19.50
2017-08-20T08:52:16.101Z,16.33
2017-08-20T08:54:46.660Z,17.47
2017-08-20T08:57:17.320Z,15.23
2017-08-20T08:59:47.913Z,14.63
2017-08-20T09:02:18.444Z,15.57
2017-08-20T09:04:49.047Z,17.80
2017-08-20T09:07:19.689Z,15.10
2017-08-20T09:09:50.336Z,12.60
2017-08-20T09:12:20.962Z,13.90
2017-08-20T09:14:51.603Z,14.20
2017-08-20T09:17:21.939Z,15.57
2017-08-20T09:19:52.316Z,16.13
2017-08-20T09:22:23.693Z,15.03
2017-08-20T09:24:54.316Z,16.13
2017-08-20T09:27:24.759Z,15.47
2017-08-20T09:29:55.164Z,20.40
2017-08-20T09:32:26.511Z,13.90
2017-08-20T09:34:57.055Z,16.53
2017-08-20T09:37:27.690Z,14.87
2017-08-20T09:39:58.087Z,13.80
2017-08-20T09:42:29.639Z,14.80
2017-08-20T09:45:00.176Z,15.90
2017-08-20T09:47:31.402Z,13.40
2017-08-20T09:50:01.842Z,19.30
2017-08-20T09:52:32.209Z,13.83
2017-08-20T09:55:03.912Z,16.03
2017-08-20T09:57:34.447Z,16.00
2017-08-20T10:00:05.023Z,14.63
2017-08-20T10:02:35.403Z,34.77
2017-08-20T10:05:05.826Z,16.33
2017-08-20T10:07:36.335Z,17.00
2017-08-20T10:10:06.642Z,15.10
2017-08-20T10:12:37.243Z,18.00
2017-08-20T10:15:08.515Z,16.67
2017-08-20T10:17:39.078Z,15.90
2017-08-20T10:20:09.779Z,19.97
2017-08-20T10:22:40.228Z,19.47
2017-08-20T10:25:10.748Z,19.30
2017-08-20T10:27:41.179Z,18.63
2017-08-20T10:30:11.475Z,17.17
2017-08-20T10:32:42.862Z,20.80
2017-08-20T10:35:13.374Z,20.40
2017-08-20T10:37:43.879Z,17.97
2017-08-20T10:40:14.515Z,17.40
2017-08-20T10:42:46.065Z,18.57
2017-08-20T10:45:16.457Z,20.77
2017-08-20T10:47:46.956Z,20.60
2017-08-20T10:50:17.488Z,18.80
2017-08-20T10:52:47.954Z,25.03
2017-08-20T10:55:18.343Z,22.00
2017-08-20T10:57:48.580Z,22.30
2017-08-20T11:00:18.980Z,25.57
2017-08-20T11:02:50.090Z,21.10
2017-08-20T11:05:20.372Z,21.70
2017-08-20T11:07:50.711Z,28.17
2017-08-20T11:10:21.211Z,18.87
2017-08-20T11:12:51.560Z,19.83
2017-08-20T11:15:22.323Z,24.43
2017-08-20T11:17:52.623Z,19.43
2017-08-20T11:20:23.200Z,20.30
2017-08-20T11:22:53.622Z,19.43
2017-08-20T11:25:23.928Z,24.90
2017-08-20T11:27:54.094Z,20.20
2017-08-20T11:30:25.472Z,19.07
2017-08-20T11:32:56.010Z,26.90
2017-08-20T11:35:26.650Z,23.30
2017-08-20T11:37:58.512Z,24.37
2017-08-20T11:40:28.662Z,23.33
2017-08-20T11:43:00.755Z,22.80
2017-08-20T11:45:31.424Z,23.93
2017-08-20T11:48:02.064Z,23.27
2017-08-20T11:50:32.493Z,28.77
2017-08-20T11:53:02.988Z,24.43
2017-08-20T11:55:34.326Z,24.07
2017-08-20T11:58:04.945Z,23.10
2017-08-20T12:00:35.253Z,21.83
2017-08-20T12:03:05.732Z,20.90
2017-08-20T12:05:36.423Z,23.27
2017-08-20T12:08:07.129Z,27.50
2017-08-20T12:10:37.456Z,42.03
2017-08-20T12:13:08.006Z,36.37
2017-08-20T12:15:38.482Z,32.90
2017-08-20T12:18:09.791Z,28.30
2017-08-20T12:20:40.152Z,28.90
2017-08-20T12:23:11.349Z,28.30
2017-08-20T12:25:41.964Z,29.70
2017-08-20T12:28:13.300Z,24.37
2017-08-20T12:30:43.937Z,24.73
2017-08-20T12:33:14.344Z,48.67
2017-08-20T12:35:45.598Z,66.47
2017-08-20T12:38:16.148Z,29.53
2017-08-20T12:40:46.671Z,29.63
2017-08-20T12:43:18.022Z,32.77
2017-08-20T12:45:48.444Z,28.63
2017-08-20T12:48:19.762Z,34.43
2017-08-20T12:50:52.423Z,36.23
2017-08-20T12:53:24.620Z,29.47
2017-08-20T12:55:55.291Z,32.40
2017-08-20T12:58:26.208Z,35.17
2017-08-20T13:00:58.477Z,29.90
2017-08-20T13:03:29.808Z,29.00
2017-08-20T13:06:00.338Z,28.67
2017-08-20T13:08:30.633Z,27.53
2017-08-20T13:11:01.017Z,25.23
2017-08-20T13:13:31.359Z,28.93
2017-08-20T13:16:01.956Z,26.90
2017-08-20T13:18:32.260Z,28.27
2017-08-20T13:21:02.917Z,32.13
2017-08-20T13:23:33.398Z,31.23
2017-08-20T13:26:03.973Z,30.40
2017-08-20T13:28:34.340Z,36.50
2017-08-20T13:31:04.864Z,38.07
2017-08-20T13:33:35.410Z,28.83
2017-08-20T13:36:06.000Z,36.80
2017-08-20T13:38:36.545Z,33.07
2017-08-20T13:41:07.056Z,27.13
2017-08-20T13:43:37.972Z,29.40
2017-08-20T13:46:08.656Z,34.13
2017-08-20T13:48:40.131Z,33.67
2017-08-20T13:51:10.536Z,27.17
2017-08-20T13:53:42.081Z,35.63
2017-08-20T13:56:12.760Z,37.27
2017-08-20T13:58:43.345Z,43.87
2017-08-20T14:01:13.912Z,36.80
2017-08-20T14:03:44.544Z,31.00
2017-08-20T14:06:15.154Z,33.13
2017-08-20T14:08:46.333Z,29.57
2017-08-20T14:11:16.843Z,32.03
2017-08-20T14:13:47.463Z,35.80
2017-08-20T14:16:18.054Z,39.77
2017-08-20T14:18:48.614Z,32.53
2017-08-20T14:21:19.091Z,35.73
2017-08-20T14:23:49.492Z,34.57
2017-08-20T14:26:20.799Z,31.70
2017-08-20T14:28:51.392Z,30.37
2017-08-20T14:31:21.825Z,31.40
2017-08-20T14:33:52.466Z,30.00
2017-08-20T14:36:23.097Z,31.70
2017-08-20T14:38:53.870Z,30.97
2017-08-20T14:41:24.363Z,37.03
2017-08-20T14:43:54.957Z,32.47
2017-08-20T14:46:26.107Z,34.77
2017-08-20T14:48:57.002Z,34.10
2017-08-20T14:51:27.486Z,31.67
2017-08-20T14:53:58.052Z,27.80
2017-08-20T14:56:28.668Z,32.97
2017-08-20T14:58:59.054Z,33.07
2017-08-20T15:01:29.413Z,30.33
2017-08-20T15:03:59.776Z,28.97
2017-08-20T15:06:30.137Z,28.40
2017-08-20T15:09:01.794Z,28.67
2017-08-20T15:11:32.524Z,26.50
2017-08-20T15:14:03.100Z,27.20
2017-08-20T15:16:33.568Z,28.30
2017-08-20T15:19:04.058Z,27.63
2017-08-20T15:21:34.578Z,30.13
2017-08-20T15:24:04.995Z,26.27
2017-08-20T15:26:36.291Z,26.23
2017-08-20T15:29:06.924Z,26.57
2017-08-20T15:31:37.427Z,25.97
2017-08-20T15:34:08.168Z,24.30
2017-08-20T15:36:38.689Z,25.47
2017-08-20T15:39:09.144Z,29.07
2017-08-20T15:41:39.639Z,28.13
2017-08-20T15:44:11.209Z,25.20
2017-08-20T15:46:41.916Z,25.23
2017-08-20T15:49:13.231Z,26.53
2017-08-20T15:51:44.229Z,31.03
2017-08-20T15:54:15.343Z,29.10
2017-08-20T15:56:46.272Z,24.03
2017-08-20T15:59:17.461Z,26.47
2017-08-20T16:01:48.604Z,28.27
2017-08-20T16:04:19.720Z,30.20
2017-08-20T16:06:50.985Z,24.63
2017-08-20T16:09:22.969Z,24.97
2017-08-20T16:11:54.144Z,26.13
2017-08-20T16:14:25.348Z,34.97
2017-08-20T16:16:56.496Z,25.47
2017-08-20T16:19:27.701Z,30.73
2017-08-20T16:21:58.738Z,28.73
2017-08-20T16:24:29.757Z,27.90
2017-08-20T16:27:00.892Z,26.40
2017-08-20T16:29:31.896Z,26.50
2017-08-20T16:32:03.808Z,26.40
2017-08-20T16:34:34.844Z,26.00
2017-08-20T16:37:05.837Z,25.30
2017-08-20T16:39:36.843Z,27.73
2017-08-20T16:42:08.043Z,29.10
2017-08-20T16:44:40.567Z,24.17
2017-08-20T16:47:11.620Z,29.87
2017-08-20T16:49:42.575Z,25.47
2017-08-20T16:52:13.439Z,26.83
2017-08-20T16:54:45.173Z,26.20
2017-08-20T16:57:16.102Z,26.47
2017-08-20T16:59:47.281Z,25.57
2017-08-20T17:02:19.054Z,25.80
2017-08-20T17:04:50.156Z,26.53
2017-08-20T17:07:21.188Z,27.10
2017-08-20T17:09:52.118Z,26.63
2017-08-20T17:12:23.165Z,29.23
2017-08-20T17:14:54.143Z,27.40
2017-08-20T17:17:25.017Z,27.63
2017-08-20T17:19:56.262Z,29.23
2017-08-20T17:22:27.418Z,26.57
2017-08-20T17:24:58.476Z,23.60
2017-08-20T17:27:29.588Z,24.57
2017-08-20T17:30:00.762Z,23.50
2017-08-20T17:32:31.814Z,24.30
2017-08-20T17:35:03.064Z,25.53
2017-08-20T17:37:34.144Z,32.17
2017-08-20T17:40:05.195Z,24.87
2017-08-20T17:42:37.005Z,24.90
2017-08-20T17:45:08.201Z,23.23
2017-08-20T17:47:39.389Z,26.23
2017-08-20T17:50:10.542Z,24.77
2017-08-20T17:52:41.577Z,24.17
2017-08-20T17:55:12.684Z,25.07
2017-08-20T17:57:43.673Z,29.47
2017-08-20T18:00:14.905Z,30.80
2017-08-20T18:02:45.908Z,28.30
2017-08-20T18:05:16.993Z,26.80
2017-08-20T18:07:48.077Z,27.27
2017-08-20T18:10:19.105Z,27.80
2017-08-20T18:12:49.973Z,27.93
2017-08-20T18:15:21.088Z,25.13
2017-08-20T18:17:51.889Z,25.90
2017-08-20T18:20:23.049Z,24.63
2017-08-20T18:22:53.897Z,30.83
2017-08-20T18:25:24.777Z,27.47
2017-08-20T18:27:55.740Z,28.27
2017-08-20T18:30:27.520Z,26.93
2017-08-20T18:32:58.597Z,28.33
2017-08-20T18:35:29.567Z,27.97
2017-08-20T18:38:00.423Z,26.43
2017-08-20T18:40:32.276Z,26.83
2017-08-20T18:43:03.177Z,28.43
2017-08-20T18:45:34.561Z,33.33
2017-08-20T18:48:06.360Z,26.83
2017-08-20T18:50:37.478Z,29.70
2017-08-20T18:53:09.178Z,29.63
2017-08-20T18:55:40.388Z,27.90
2017-08-20T18:58:11.382Z,28.37
2017-08-20T19:00:42.339Z,29.03
2017-08-20T19:03:13.290Z,45.90
2017-08-20T19:05:44.213Z,28.77
2017-08-20T19:08:15.291Z,34.13
2017-08-20T19:10:47.138Z,32.43
2017-08-20T19:13:18.232Z,29.33
2017-08-20T19:15:49.297Z,29.63
2017-08-20T19:18:20.262Z,32.23
2017-08-20T19:20:51.522Z,29.90
2017-08-20T19:23:23.203Z,27.80
2017-08-20T19:25:54.392Z,27.63
2017-08-20T19:28:25.397Z,25.77
2017-08-20T19:30:56.401Z,26.37
2017-08-20T19:33:27.313Z,26.27
2017-08-20T19:35:58.232Z,25.77
2017-08-20T19:38:29.438Z,26.33
2017-08-20T19:41:01.307Z,27.57
2017-08-20T19:43:33.186Z,26.27
2017-08-20T19:46:04.585Z,31.20
2017-08-20T19:48:35.609Z,25.63
2017-08-20T19:51:06.728Z,27.17
2017-08-20T19:53:37.856Z,26.77
2017-08-20T19:56:09.798Z,27.67
2017-08-20T19:58:41.639Z,27.27
2017-08-20T20:01:12.686Z,27.00
2017-08-20T20:03:43.868Z,27.50
2017-08-20T20:06:15.594Z,38.60
2017-08-20T20:08:46.902Z,32.03
2017-08-20T20:11:18.084Z,31.30
2017-08-20T20:13:49.152Z,35.67
2017-08-20T20:16:21.073Z,34.40
2017-08-20T20:18:52.297Z,36.20
2017-08-20T20:21:23.522Z,32.60
2017-08-20T20:23:55.388Z,35.67
2017-08-20T20:26:26.549Z,33.23
2017-08-20T20:28:57.577Z,34.80
2017-08-20T20:31:28.651Z,33.17
2017-08-20T20:33:59.808Z,34.47
2017-08-20T20:36:30.618Z,37.80
2017-08-20T20:39:01.609Z,32.73
2017-08-20T20:41:32.655Z,36.10
2017-08-20T20:44:03.941Z,39.50
2017-08-20T20:46:35.031Z,31.93
2017-08-20T20:49:06.070Z,30.37
2017-08-20T20:51:37.283Z,32.50
2017-08-20T20:54:08.439Z,31.30
2017-08-20T20:56:39.424Z,32.40
2017-08-20T20:59:10.374Z,31.90
2017-08-20T21:01:41.638Z,35.90
2017-08-20T21:04:13.417Z,42.33
2017-08-20T21:06:44.562Z,34.03
2017-08-20T21:09:15.517Z,35.50
2017-08-20T21:11:46.598Z,40.83
2017-08-20T21:14:17.608Z,47.03
2017-08-20T21:16:48.757Z,38.37
2017-08-20T21:19:19.784Z,48.13
2017-08-20T21:21:50.866Z,49.23
2017-08-20T21:24:21.777Z,69.10
2017-08-20T21:26:52.906Z,47.87
2017-08-20T21:29:24.022Z,48.20
2017-08-20T21:31:55.921Z,42.50
2017-08-20T21:34:26.923Z,49.73
2017-08-20T21:36:57.863Z,61.57
2017-08-20T21:39:29.150Z,55.80
2017-08-20T21:42:00.296Z,66.67
2017-08-20T21:44:31.433Z,54.63
2017-08-20T21:47:02.719Z,55.30
2017-08-20T21:49:33.831Z,56.53
2017-08-20T21:52:04.968Z,67.43
2017-08-20T21:54:36.126Z,64.73
2017-08-20T21:57:07.196Z,73.50
2017-08-20T21:59:38.155Z,69.33
2017-08-20T22:02:09.351Z,56.77
2017-08-20T22:04:40.519Z,58.30
2017-08-20T22:07:11.588Z,57.03
2017-08-20T22:09:42.523Z,62.57
2017-08-20T22:12:13.509Z,60.10
2017-08-20T22:14:44.755Z,63.97
2017-08-20T22:17:15.777Z,48.27
2017-08-20T22:19:46.816Z,52.07
2017-08-20T22:22:17.829Z,61.00
2017-08-20T22:24:48.937Z,49.30
2017-08-20T22:27:19.721Z,48.13
2017-08-20T22:29:50.760Z,49.87
2017-08-20T22:32:21.816Z,54.10
2017-08-20T22:34:52.815Z,48.40
2017-08-20T22:37:24.025Z,50.30
2017-08-20T22:39:55.149Z,47.70
2017-08-20T22:42:26.189Z,55.53
2017-08-20T22:44:57.405Z,47.40
2017-08-20T22:47:28.800Z,50.63
2017-08-20T22:49:59.857Z,66.53
2017-08-20T22:52:30.870Z,49.60
2017-08-20T22:55:02.045Z,52.27
2017-08-20T22:57:33.233Z,48.00
2017-08-20T23:00:04.094Z,50.47
2017-08-20T23:02:35.188Z,51.53
2017-08-20T23:05:06.325Z,51.67
2017-08-20T23:07:38.099Z,51.33
2017-08-20T23:10:09.244Z,53.90
2017-08-20T23:12:40.266Z,50.50
2017-08-20T23:15:11.444Z,59.10
2017-08-20T23:17:42.957Z,58.77
2017-08-20T23:20:13.819Z,57.03
2017-08-20T23:22:44.898Z,77.60
2017-08-20T23:25:16.003Z,63.43
2017-08-20T23:27:47.030Z,68.90
2017-08-20T23:30:18.138Z,60.83
2017-08-20T23:32:49.330Z,55.83
2017-08-20T23:35:21.318Z,51.10
2017-08-20T23:37:52.213Z,56.47
2017-08-20T23:40:23.278Z,61.03
2017-08-20T23:42:54.186Z,56.07
2017-08-20T23:45:25.229Z,75.33
2017-08-20T23:47:56.524Z,59.50
2017-08-20T23:50:27.806Z,73.37
2017-08-20T23:52:58.838Z,56.70
2017-08-20T23:55:29.979Z,66.77
2017-08-20T23:58:01.057Z,75.50
